N60CG KSRQ-KEYW
Flight info
| Callsign | N60CG |
|---|---|
| Flight time | 0h 53m |
| Altitude | 5000 |
| Route | VIOLA V579 RSW V225 EYW |
| Aircraft | TBM9/L-VGDW/C |
Departure
| Time | 2026-04-20 22:23 |
|---|---|
| Airport | Sarasota Bradenton International Airport (KSRQ) |
Arrival
| Time | 2026-04-20 23:17 |
|---|---|
| Airport | Key West International Airport (KEYW) |
| Time | Latitude | Longitude | Altitude | Speed | Heading |
|---|---|---|---|---|---|
| 2026-04-20 22:12 | 27.39466 | -82.55739 | 28 ft | 0 kts | 41° |
| 2026-04-20 22:20 | 27.39471 | -82.55735 | 28 ft | 3 kts | 41° |
| 2026-04-20 22:20 | 27.39511 | -82.55714 | 28 ft | 10 kts | 44° |
| 2026-04-20 22:20 | 27.39505 | -82.55642 | 28 ft | 15 kts | 133° |
| 2026-04-20 22:21 | 27.39427 | -82.55554 | 28 ft | 15 kts | 137° |
| 2026-04-20 22:21 | 27.39317 | -82.55603 | 27 ft | 23 kts | 220° |
| 2026-04-20 22:21 | 27.39194 | -82.55713 | 27 ft | 24 kts | 218° |
| 2026-04-20 22:21 | 27.39135 | -82.55765 | 27 ft | 1 kts | 218° |
| 2026-04-20 22:22 | 27.39110 | -82.55785 | 27 ft | 0 kts | 205° |
| 2026-04-20 22:22 | 27.39108 | -82.55786 | 27 ft | 3 kts | 205° |
| 2026-04-20 22:22 | 27.39049 | -82.55781 | 27 ft | 10 kts | 167° |
| 2026-04-20 22:22 | 27.39043 | -82.55727 | 27 ft | 10 kts | 40° |
| 2026-04-20 22:23 | 27.39192 | -82.55600 | 27 ft | 54 kts | 38° |
| 2026-04-20 22:23 | 27.39636 | -82.55212 | 82 ft | 102 kts | 38° |
| 2026-04-20 22:23 | 27.40260 | -82.54677 | 324 ft | 126 kts | 36° |
| 2026-04-20 22:23 | 27.40987 | -82.54024 | 657 ft | 140 kts | 43° |
| 2026-04-20 22:24 | 27.41707 | -82.53227 | 1059 ft | 153 kts | 42° |
| 2026-04-20 22:24 | 27.42528 | -82.52386 | 1465 ft | 162 kts | 50° |
| 2026-04-20 22:24 | 27.42818 | -82.51625 | 1810 ft | 163 kts | 80° |
| 2026-04-20 22:24 | 27.42481 | -82.50398 | 2322 ft | 175 kts | 126° |
| 2026-04-20 22:25 | 27.41399 | -82.49704 | 2840 ft | 186 kts | 162° |
| 2026-04-20 22:25 | 27.40136 | -82.49373 | 3362 ft | 187 kts | 164° |
| 2026-04-20 22:25 | 27.38842 | -82.49132 | 3873 ft | 190 kts | 174° |
| 2026-04-20 22:25 | 27.37490 | -82.49114 | 4293 ft | 198 kts | 177° |
| 2026-04-20 22:26 | 27.36113 | -82.49103 | 4693 ft | 202 kts | 177° |
| 2026-04-20 22:26 | 27.34687 | -82.49086 | 4994 ft | 212 kts | 177° |
| 2026-04-20 22:26 | 27.33142 | -82.49059 | 5002 ft | 230 kts | 177° |
| 2026-04-20 22:27 | 27.29798 | -82.48991 | 5007 ft | 246 kts | 177° |
| 2026-04-20 22:27 | 27.28075 | -82.48950 | 5013 ft | 247 kts | 177° |
| 2026-04-20 22:27 | 27.26350 | -82.48910 | 5006 ft | 249 kts | 177° |
| 2026-04-20 22:27 | 27.24620 | -82.48869 | 5007 ft | 249 kts | 177° |
| 2026-04-20 22:28 | 27.22888 | -82.48829 | 5013 ft | 249 kts | 177° |
| 2026-04-20 22:28 | 27.21153 | -82.48788 | 5004 ft | 250 kts | 177° |
| 2026-04-20 22:28 | 27.19423 | -82.48670 | 5004 ft | 249 kts | 171° |
| 2026-04-20 22:28 | 27.17709 | -82.48390 | 5005 ft | 248 kts | 169° |
| 2026-04-20 22:29 | 27.16026 | -82.47982 | 5004 ft | 247 kts | 162° |
| 2026-04-20 22:29 | 27.14398 | -82.47458 | 5000 ft | 246 kts | 161° |
| 2026-04-20 22:29 | 27.12755 | -82.46914 | 5007 ft | 247 kts | 161° |
| 2026-04-20 22:29 | 27.11106 | -82.46372 | 5007 ft | 247 kts | 161° |
| 2026-04-20 22:30 | 27.09455 | -82.45821 | 5005 ft | 248 kts | 160° |
| 2026-04-20 22:30 | 27.07838 | -82.45138 | 5010 ft | 248 kts | 155° |
| 2026-04-20 22:30 | 27.06257 | -82.44371 | 5011 ft | 248 kts | 154° |
| 2026-04-20 22:30 | 27.04680 | -82.43596 | 5002 ft | 247 kts | 154° |
| 2026-04-20 22:31 | 27.03110 | -82.42823 | 5001 ft | 246 kts | 154° |
| 2026-04-20 22:31 | 27.01547 | -82.42055 | 4995 ft | 244 kts | 154° |
| 2026-04-20 22:31 | 26.99997 | -82.41288 | 4999 ft | 243 kts | 154° |
| 2026-04-20 22:31 | 26.98445 | -82.40526 | 4994 ft | 244 kts | 154° |
| 2026-04-20 22:32 | 26.96889 | -82.39773 | 4999 ft | 244 kts | 154° |
| 2026-04-20 22:32 | 26.95330 | -82.39014 | 4995 ft | 244 kts | 154° |
| 2026-04-20 22:32 | 26.93774 | -82.38254 | 5001 ft | 244 kts | 154° |
| 2026-04-20 22:32 | 26.92215 | -82.37492 | 4999 ft | 244 kts | 154° |
| 2026-04-20 22:33 | 26.90661 | -82.36733 | 4991 ft | 243 kts | 154° |
| 2026-04-20 22:33 | 26.89132 | -82.35985 | 4996 ft | 243 kts | 154° |
| 2026-04-20 22:33 | 26.87585 | -82.35223 | 4993 ft | 242 kts | 154° |
| 2026-04-20 22:33 | 26.86044 | -82.34459 | 4992 ft | 242 kts | 154° |
| 2026-04-20 22:34 | 26.84501 | -82.33698 | 4987 ft | 242 kts | 154° |
| 2026-04-20 22:34 | 26.82952 | -82.32940 | 4981 ft | 243 kts | 154° |
| 2026-04-20 22:34 | 26.81404 | -82.32182 | 4989 ft | 243 kts | 154° |
| 2026-04-20 22:34 | 26.79851 | -82.31417 | 4987 ft | 244 kts | 154° |
| 2026-04-20 22:35 | 26.78300 | -82.30652 | 4986 ft | 244 kts | 154° |
| 2026-04-20 22:35 | 26.76750 | -82.29887 | 4984 ft | 244 kts | 154° |
| 2026-04-20 22:35 | 26.75219 | -82.29128 | 4987 ft | 243 kts | 154° |
| 2026-04-20 22:35 | 26.73677 | -82.28356 | 4985 ft | 243 kts | 154° |
| 2026-04-20 22:36 | 26.72132 | -82.27581 | 4978 ft | 243 kts | 154° |
| 2026-04-20 22:36 | 26.70592 | -82.26807 | 4978 ft | 242 kts | 154° |
| 2026-04-20 22:36 | 26.69052 | -82.26034 | 4979 ft | 242 kts | 154° |
| 2026-04-20 22:36 | 26.67510 | -82.25261 | 4985 ft | 244 kts | 154° |
| 2026-04-20 22:37 | 26.65958 | -82.24478 | 4983 ft | 244 kts | 154° |
| 2026-04-20 22:37 | 26.64398 | -82.23705 | 4974 ft | 245 kts | 154° |
| 2026-04-20 22:37 | 26.62839 | -82.22935 | 4983 ft | 246 kts | 154° |
| 2026-04-20 22:37 | 26.61278 | -82.22149 | 4973 ft | 245 kts | 150° |
| 2026-04-20 22:38 | 26.59957 | -82.20990 | 4973 ft | 241 kts | 133° |
| 2026-04-20 22:38 | 26.58793 | -82.19641 | 4973 ft | 240 kts | 131° |
| 2026-04-20 22:38 | 26.57646 | -82.18283 | 4974 ft | 240 kts | 130° |
| 2026-04-20 22:38 | 26.56505 | -82.16918 | 4979 ft | 240 kts | 131° |
| 2026-04-20 22:39 | 26.55367 | -82.15554 | 4975 ft | 240 kts | 131° |
| 2026-04-20 22:39 | 26.54231 | -82.14189 | 4975 ft | 239 kts | 130° |
| 2026-04-20 22:39 | 26.53095 | -82.12819 | 4972 ft | 240 kts | 131° |
| 2026-04-20 22:39 | 26.51979 | -82.11468 | 4974 ft | 241 kts | 131° |
| 2026-04-20 22:40 | 26.50836 | -82.10093 | 4973 ft | 241 kts | 131° |
| 2026-04-20 22:40 | 26.49700 | -82.08726 | 4981 ft | 240 kts | 130° |
| 2026-04-20 22:40 | 26.48557 | -82.07353 | 4981 ft | 241 kts | 131° |
| 2026-04-20 22:40 | 26.47419 | -82.05971 | 4975 ft | 241 kts | 130° |
| 2026-04-20 22:41 | 26.46283 | -82.04598 | 4979 ft | 241 kts | 131° |
| 2026-04-20 22:41 | 26.45150 | -82.03222 | 4976 ft | 241 kts | 130° |
| 2026-04-20 22:41 | 26.44010 | -82.01845 | 4994 ft | 242 kts | 131° |
| 2026-04-20 22:41 | 26.42875 | -82.00465 | 4991 ft | 241 kts | 130° |
| 2026-04-20 22:42 | 26.41744 | -81.99084 | 4994 ft | 241 kts | 130° |
| 2026-04-20 22:42 | 26.40614 | -81.97705 | 4990 ft | 241 kts | 131° |
| 2026-04-20 22:42 | 26.39485 | -81.96324 | 4995 ft | 241 kts | 130° |
| 2026-04-20 22:42 | 26.38355 | -81.94938 | 4991 ft | 241 kts | 130° |
| 2026-04-20 22:43 | 26.37241 | -81.93570 | 4992 ft | 241 kts | 131° |
| 2026-04-20 22:43 | 26.36117 | -81.92188 | 5000 ft | 240 kts | 130° |
| 2026-04-20 22:43 | 26.34998 | -81.90810 | 4998 ft | 240 kts | 130° |
| 2026-04-20 22:43 | 26.33876 | -81.89429 | 4987 ft | 240 kts | 130° |
| 2026-04-20 22:44 | 26.32755 | -81.88048 | 4996 ft | 240 kts | 131° |
| 2026-04-20 22:44 | 26.31631 | -81.86667 | 4990 ft | 241 kts | 130° |
| 2026-04-20 22:44 | 26.30386 | -81.85429 | 4988 ft | 242 kts | 150° |
| 2026-04-20 22:44 | 26.28805 | -81.84764 | 4991 ft | 243 kts | 162° |
| 2026-04-20 22:45 | 26.27183 | -81.84214 | 4989 ft | 244 kts | 162° |
| 2026-04-20 22:45 | 26.25555 | -81.83669 | 4994 ft | 244 kts | 162° |
| 2026-04-20 22:45 | 26.23933 | -81.83128 | 4987 ft | 243 kts | 163° |
| 2026-04-20 22:45 | 26.22312 | -81.82588 | 4997 ft | 243 kts | 162° |
| 2026-04-20 22:46 | 26.20712 | -81.82055 | 5000 ft | 243 kts | 162° |
| 2026-04-20 22:46 | 26.19087 | -81.81516 | 4994 ft | 243 kts | 162° |
| 2026-04-20 22:46 | 26.17464 | -81.80977 | 5001 ft | 244 kts | 162° |
| 2026-04-20 22:46 | 26.15838 | -81.80433 | 5005 ft | 244 kts | 162° |
| 2026-04-20 22:47 | 26.14206 | -81.79885 | 5000 ft | 244 kts | 162° |
| 2026-04-20 22:47 | 26.12579 | -81.79338 | 4997 ft | 244 kts | 162° |
| 2026-04-20 22:47 | 26.10951 | -81.78790 | 4999 ft | 243 kts | 162° |
| 2026-04-20 22:47 | 26.09340 | -81.78276 | 4999 ft | 243 kts | 167° |
| 2026-04-20 22:48 | 26.07660 | -81.78067 | 4998 ft | 242 kts | 179° |
| 2026-04-20 22:48 | 26.05979 | -81.78148 | 4994 ft | 243 kts | 183° |
| 2026-04-20 22:48 | 26.04293 | -81.78221 | 4993 ft | 243 kts | 181° |
| 2026-04-20 22:48 | 26.02602 | -81.78231 | 5014 ft | 242 kts | 180° |
| 2026-04-20 22:49 | 26.00917 | -81.78243 | 5014 ft | 242 kts | 181° |
| 2026-04-20 22:49 | 25.99234 | -81.78268 | 5013 ft | 242 kts | 181° |
| 2026-04-20 22:49 | 25.97550 | -81.78290 | 5014 ft | 242 kts | 181° |
| 2026-04-20 22:49 | 25.95868 | -81.78313 | 5017 ft | 242 kts | 181° |
| 2026-04-20 22:50 | 25.94205 | -81.78333 | 5013 ft | 242 kts | 181° |
| 2026-04-20 22:50 | 25.92522 | -81.78355 | 5015 ft | 242 kts | 181° |
| 2026-04-20 22:50 | 25.90837 | -81.78376 | 5011 ft | 241 kts | 181° |
| 2026-04-20 22:50 | 25.89157 | -81.78397 | 5003 ft | 241 kts | 181° |
| 2026-04-20 22:51 | 25.87479 | -81.78420 | 5011 ft | 241 kts | 181° |
| 2026-04-20 22:51 | 25.85799 | -81.78441 | 5004 ft | 241 kts | 181° |
| 2026-04-20 22:51 | 25.84121 | -81.78462 | 5009 ft | 241 kts | 181° |
| 2026-04-20 22:51 | 25.82445 | -81.78483 | 5007 ft | 241 kts | 181° |
| 2026-04-20 22:52 | 25.80766 | -81.78505 | 4997 ft | 241 kts | 181° |
| 2026-04-20 22:52 | 25.79087 | -81.78526 | 5006 ft | 241 kts | 181° |
| 2026-04-20 22:52 | 25.77413 | -81.78547 | 5006 ft | 240 kts | 181° |
| 2026-04-20 22:52 | 25.75740 | -81.78568 | 4997 ft | 240 kts | 181° |
| 2026-04-20 22:53 | 25.74067 | -81.78590 | 5009 ft | 240 kts | 181° |
| 2026-04-20 22:53 | 25.72394 | -81.78611 | 5001 ft | 240 kts | 181° |
| 2026-04-20 22:53 | 25.70722 | -81.78632 | 5001 ft | 240 kts | 181° |
| 2026-04-20 22:53 | 25.69051 | -81.78653 | 5003 ft | 240 kts | 181° |
| 2026-04-20 22:54 | 25.67401 | -81.78674 | 4998 ft | 240 kts | 181° |
| 2026-04-20 22:54 | 25.65727 | -81.78695 | 4995 ft | 240 kts | 181° |
| 2026-04-20 22:54 | 25.64057 | -81.78717 | 4995 ft | 240 kts | 181° |
| 2026-04-20 22:54 | 25.62383 | -81.78738 | 4995 ft | 240 kts | 181° |
| 2026-04-20 22:55 | 25.60713 | -81.78758 | 4995 ft | 240 kts | 181° |
| 2026-04-20 22:55 | 25.59045 | -81.78780 | 4998 ft | 240 kts | 181° |
| 2026-04-20 22:55 | 25.57373 | -81.78802 | 4990 ft | 240 kts | 181° |
| 2026-04-20 22:55 | 25.55707 | -81.78821 | 4991 ft | 240 kts | 181° |
| 2026-04-20 22:56 | 25.54059 | -81.78843 | 5000 ft | 239 kts | 181° |
| 2026-04-20 22:56 | 25.52392 | -81.78864 | 4992 ft | 239 kts | 181° |
| 2026-04-20 22:56 | 25.50723 | -81.78885 | 4998 ft | 239 kts | 181° |
| 2026-04-20 22:56 | 25.49061 | -81.78906 | 4990 ft | 239 kts | 181° |
| 2026-04-20 22:57 | 25.47395 | -81.78927 | 4991 ft | 239 kts | 181° |
| 2026-04-20 22:57 | 25.45725 | -81.78948 | 4998 ft | 239 kts | 181° |
| 2026-04-20 22:57 | 25.44060 | -81.78969 | 4996 ft | 239 kts | 181° |
| 2026-04-20 22:57 | 25.42397 | -81.78990 | 4987 ft | 239 kts | 181° |
| 2026-04-20 22:58 | 25.40728 | -81.79012 | 4999 ft | 239 kts | 181° |
| 2026-04-20 22:58 | 25.39060 | -81.79032 | 4991 ft | 239 kts | 181° |
| 2026-04-20 22:58 | 25.37396 | -81.79053 | 4994 ft | 239 kts | 181° |
| 2026-04-20 22:58 | 25.35732 | -81.79074 | 4993 ft | 239 kts | 181° |
| 2026-04-20 22:59 | 25.34067 | -81.79094 | 4992 ft | 239 kts | 181° |
| 2026-04-20 22:59 | 25.32421 | -81.79275 | 4995 ft | 238 kts | 194° |
| 2026-04-20 22:59 | 25.30838 | -81.79787 | 4989 ft | 237 kts | 198° |
| 2026-04-20 22:59 | 25.29245 | -81.80277 | 4995 ft | 238 kts | 194° |
| 2026-04-20 23:00 | 25.27630 | -81.80677 | 4997 ft | 238 kts | 193° |
| 2026-04-20 23:00 | 25.26013 | -81.81074 | 4997 ft | 238 kts | 193° |
| 2026-04-20 23:00 | 25.24417 | -81.81483 | 4993 ft | 238 kts | 194° |
| 2026-04-20 23:00 | 25.22803 | -81.81898 | 4996 ft | 238 kts | 194° |
| 2026-04-20 23:01 | 25.21185 | -81.82311 | 4999 ft | 238 kts | 193° |
| 2026-04-20 23:01 | 25.19569 | -81.82722 | 4995 ft | 238 kts | 193° |
| 2026-04-20 23:01 | 25.17954 | -81.83134 | 4992 ft | 238 kts | 193° |
| 2026-04-20 23:01 | 25.16339 | -81.83547 | 5000 ft | 238 kts | 194° |
| 2026-04-20 23:02 | 25.14723 | -81.83959 | 4992 ft | 238 kts | 193° |
| 2026-04-20 23:02 | 25.13104 | -81.84371 | 4998 ft | 238 kts | 194° |
| 2026-04-20 23:02 | 25.11488 | -81.84782 | 4991 ft | 238 kts | 193° |
| 2026-04-20 23:02 | 25.09873 | -81.85194 | 4997 ft | 238 kts | 193° |
| 2026-04-20 23:03 | 25.08254 | -81.85606 | 4999 ft | 238 kts | 193° |
| 2026-04-20 23:03 | 25.06659 | -81.86012 | 4993 ft | 238 kts | 193° |
| 2026-04-20 23:03 | 25.05025 | -81.86429 | 4999 ft | 238 kts | 193° |
| 2026-04-20 23:03 | 25.03426 | -81.86835 | 4986 ft | 238 kts | 193° |
| 2026-04-20 23:04 | 25.01808 | -81.87246 | 4991 ft | 239 kts | 193° |
| 2026-04-20 23:04 | 25.00186 | -81.87660 | 4999 ft | 239 kts | 193° |
| 2026-04-20 23:04 | 24.98567 | -81.88071 | 4995 ft | 239 kts | 193° |
| 2026-04-20 23:04 | 24.96946 | -81.88483 | 4994 ft | 239 kts | 193° |
| 2026-04-20 23:05 | 24.95325 | -81.88895 | 4989 ft | 239 kts | 193° |
| 2026-04-20 23:05 | 24.93702 | -81.89307 | 4994 ft | 239 kts | 193° |
| 2026-04-20 23:05 | 24.92079 | -81.89719 | 5002 ft | 240 kts | 193° |
| 2026-04-20 23:05 | 24.90449 | -81.90133 | 5000 ft | 240 kts | 193° |
| 2026-04-20 23:06 | 24.88819 | -81.90547 | 5000 ft | 240 kts | 193° |
| 2026-04-20 23:06 | 24.87209 | -81.90955 | 4998 ft | 240 kts | 193° |
| 2026-04-20 23:06 | 24.85580 | -81.91368 | 4999 ft | 240 kts | 193° |
| 2026-04-20 23:06 | 24.83951 | -81.91782 | 4996 ft | 240 kts | 193° |
| 2026-04-20 23:07 | 24.82315 | -81.92197 | 4999 ft | 240 kts | 193° |
| 2026-04-20 23:07 | 24.80685 | -81.92610 | 4994 ft | 240 kts | 193° |
| 2026-04-20 23:07 | 24.79053 | -81.93023 | 4997 ft | 241 kts | 193° |
| 2026-04-20 23:07 | 24.77422 | -81.93437 | 4991 ft | 240 kts | 193° |
| 2026-04-20 23:08 | 24.75800 | -81.93847 | 4994 ft | 236 kts | 193° |
| 2026-04-20 23:08 | 24.74231 | -81.94245 | 4940 ft | 231 kts | 193° |
| 2026-04-20 23:08 | 24.72688 | -81.94635 | 4713 ft | 224 kts | 193° |
| 2026-04-20 23:08 | 24.71212 | -81.95009 | 4439 ft | 213 kts | 193° |
| 2026-04-20 23:09 | 24.69795 | -81.95367 | 4167 ft | 205 kts | 193° |
| 2026-04-20 23:09 | 24.68419 | -81.95716 | 3899 ft | 200 kts | 192° |
| 2026-04-20 23:09 | 24.67073 | -81.96056 | 3637 ft | 197 kts | 192° |
| 2026-04-20 23:09 | 24.65737 | -81.96393 | 3378 ft | 196 kts | 192° |
| 2026-04-20 23:10 | 24.64412 | -81.96728 | 3116 ft | 195 kts | 192° |
| 2026-04-20 23:10 | 24.63076 | -81.96903 | 2854 ft | 193 kts | 177° |
| 2026-04-20 23:10 | 24.61731 | -81.96860 | 2583 ft | 193 kts | 178° |
| 2026-04-20 23:10 | 24.60401 | -81.96847 | 2329 ft | 182 kts | 178° |
| 2026-04-20 23:11 | 24.59187 | -81.96834 | 2113 ft | 169 kts | 178° |
| 2026-04-20 23:11 | 24.58020 | -81.96819 | 1887 ft | 166 kts | 178° |
| 2026-04-20 23:11 | 24.56903 | -81.96577 | 1664 ft | 163 kts | 152° |
| 2026-04-20 23:11 | 24.56026 | -81.95841 | 1497 ft | 158 kts | 126° |
| 2026-04-20 23:12 | 24.55651 | -81.95175 | 1497 ft | 148 kts | 110° |
| 2026-04-20 23:12 | 24.55425 | -81.94101 | 1492 ft | 145 kts | 89° |
| 2026-04-20 23:12 | 24.55445 | -81.92987 | 1499 ft | 147 kts | 87° |
| 2026-04-20 23:12 | 24.55450 | -81.91865 | 1498 ft | 147 kts | 86° |
| 2026-04-20 23:13 | 24.55465 | -81.90382 | 1497 ft | 146 kts | 86° |
| 2026-04-20 23:13 | 24.55473 | -81.89629 | 1498 ft | 146 kts | 86° |
| 2026-04-20 23:13 | 24.55487 | -81.88513 | 1498 ft | 146 kts | 86° |
| 2026-04-20 23:13 | 24.55497 | -81.87393 | 1495 ft | 146 kts | 86° |
| 2026-04-20 23:14 | 24.55508 | -81.86300 | 1492 ft | 144 kts | 86° |
| 2026-04-20 23:14 | 24.55519 | -81.85202 | 1493 ft | 143 kts | 86° |
| 2026-04-20 23:14 | 24.55532 | -81.84101 | 1492 ft | 144 kts | 86° |
| 2026-04-20 23:14 | 24.55544 | -81.83004 | 1418 ft | 140 kts | 85° |
| 2026-04-20 23:15 | 24.55549 | -81.81996 | 1191 ft | 125 kts | 84° |
| 2026-04-20 23:15 | 24.55553 | -81.81124 | 920 ft | 102 kts | 84° |
| 2026-04-20 23:15 | 24.55572 | -81.80324 | 724 ft | 104 kts | 83° |
| 2026-04-20 23:15 | 24.55557 | -81.79535 | 601 ft | 104 kts | 83° |
| 2026-04-20 23:16 | 24.55583 | -81.78764 | 443 ft | 100 kts | 84° |
| 2026-04-20 23:16 | 24.55595 | -81.78002 | 298 ft | 101 kts | 87° |
| 2026-04-20 23:16 | 24.55606 | -81.77227 | 125 ft | 96 kts | 88° |
| 2026-04-20 23:16 | 24.55615 | -81.76538 | 15 ft | 84 kts | 89° |
| 2026-04-20 23:17 | 24.55616 | -81.75946 | 7 ft | 71 kts | 90° |
| 2026-04-20 23:17 | 24.55615 | -81.75684 | 8 ft | 22 kts | 89° |
| 2026-04-20 23:17 | 24.55582 | -81.75588 | 9 ft | 14 kts | 175° |
| 2026-04-20 23:17 | 24.55488 | -81.75589 | 7 ft | 11 kts | 180° |
| 2026-04-20 23:18 | 24.55428 | -81.75636 | 7 ft | 1 kts | 267° |